METAR Data
IDs: Format: Raw Decoded Include TAF

Data at: 1234 UTC 23 Sep 2018

KBKT 231215Z AUTO 35007KT 300V020 1 3/4SM OVC002 A3015 RMK AO1
KBKT 231155Z AUTO 34006KT 1 3/4SM OVC002 A3015 RMK AO1 60001 70006
KBKT 231135Z AUTO 33006KT 2SM OVC002 A3014 RMK AO1
KBKT 231115Z AUTO 33006KT 2 1/2SM OVC004 A3014 RMK AO1
KBKT 231055Z AUTO 34006KT 5SM OVC004 A3014 RMK AO1
KBKT 231035Z AUTO 35007KT 300V030 7SM OVC004 A3013 RMK AO1
KBKT 231015Z AUTO 34007KT 290V030 7SM OVC004 A3013 RMK AO1
KBKT 230955Z AUTO 32006KT 5SM OVC004 A3012 RMK AO1
KBKT 230935Z AUTO 34006KT 7SM OVC004 A3012 RMK AO1
KBKT 230915Z AUTO 34005KT 7SM OVC004 A3012 RMK AO1
KBKT 230850Z AUTO 05006KT 7SM OVC004 A3012 RMK AO1 P0001
KBKT 230835Z AUTO 03010G15KT 7SM OVC004 A3012 RMK AO1
KBKT 230815Z AUTO 02008KT 10SM OVC004 A3012 RMK AO1
KBKT 230755Z AUTO 34006KT 10SM OVC006 A3012 RMK AO1
KBKT 230735Z AUTO 36005G16KT 10SM OVC006 A3012 RMK AO1
KBKT 230715Z AUTO 04007G17KT 10SM OVC006 18/18 A3012 RMK AO1 T01790179
KBKT 230655Z AUTO 03009G16KT 10SM BKN006 OVC011 A3011 RMK AO1
KBKT 230635Z AUTO 01005KT 10SM OVC011 19/19 A3012 RMK AO1 T01850185
KBKT 230615Z AUTO 04006KT 10SM OVC011 19/19 A3012 RMK AO1 T01860186
KBKT 230555Z AUTO 04006KT 7SM OVC013 19/19 A3013 RMK AO1 P0004 60004 T01870187 10237 20187
KBKT 230535Z AUTO 04007KT 10SM BKN013 OVC027 19/19 A3013 RMK AO1 P0001 T01920192
KBKT 230515Z AUTO 04007KT 10SM BKN015 BKN029 BKN042 20/18 A3012 RMK AO1 T02000179
KBKT 230455Z AUTO 04008KT 10SM OVC017 20/17 A3014 RMK AO1 T02030171
KBKT 230435Z AUTO 04009KT 10SM OVC019 21/17 A3014 RMK AO1 T02050171
KBKT 230415Z AUTO 01008KT 10SM OVC021 21/17 A3016 RMK AO1 T02070168
KBKT 230355Z AUTO 02006KT 10SM OVC021 21/17 A3015 RMK AO1 T02080171
KBKT 230335Z AUTO 03007KT 10SM BKN021 OVC035 21/18 A3014 RMK AO1 T02080181
KBKT 230315Z AUTO 02008KT 10SM SCT025 OVC033 21/18 A3014 RMK AO1 T02100184
KBKT 230255Z AUTO 03008KT 10SM OVC031 21/18 A3014 RMK AO1 T02120182
KBKT 230235Z AUTO 02006KT 10SM OVC029 22/18 A3014 RMK AO1 T02150182
KBKT 230215Z AUTO 03007KT 10SM BKN027 BKN034 OVC042 22/18 A3014 RMK AO1 T02160183
KBKT 230155Z AUTO 03008KT 10SM BKN027 BKN033 OVC041 22/19 A3013 RMK AO1 T02200190
KBKT 230135Z AUTO 03006KT 10SM SCT029 BKN033 OVC042 22/20 A3013 RMK AO1 T02220199
KBKT 230115Z AUTO 04006KT 10SM BKN029 OVC035 23/20 A3013 RMK AO1 T02260197
KBKT 230055Z AUTO 04011G15KT 10SM BKN027 OVC033 23/19 A3012 RMK AO1 T02300194
KBKT 230035Z AUTO 04010G14KT 10SM OVC027 23/20 A3011 RMK AO1 T02320201
KBKT 230015Z AUTO 04007KT 10SM SCT029 BKN037 OVC050 23/21 A3011 RMK AO1 T02340211
KBKT 222355Z AUTO 04006KT 10SM BKN029 OVC041 24/21 A3010 RMK AO1 T02370213 10290 20237
KBKT 222335Z AUTO 04007KT 10SM BKN027 BKN032 OVC050 24/22 A3010 RMK AO1 T02410216
KBKT 222315Z AUTO 04009KT 10SM BKN027 OVC035 25/22 A3009 RMK AO1 T02450220
KBKT 222255Z AUTO 04006KT 10SM BKN027 OVC036 25/22 A3009 RMK AO1 T02500218
KBKT 222235Z AUTO 05008KT 10SM BKN025 BKN033 OVC049 25/22 A3009 RMK AO1 T02540218
KBKT 222215Z AUTO 06005KT 10SM SCT029 BKN033 OVC049 26/22 A3008 RMK AO1 T02600222
KBKT 222155Z AUTO 07007KT 030V100 10SM SCT025 SCT033 BKN040 27/22 A3008 RMK AO1 T02650221
KBKT 222135Z AUTO 05007KT 10SM BKN028 BKN033 27/22 A3008 RMK AO1 T02650217
KBKT 222115Z AUTO 05009KT 10SM SCT026 SCT030 27/22 A3007 RMK AO1 T02710217
KBKT 222055Z AUTO 06008KT 10SM SCT050 28/22 A3007 RMK AO1 T02770217
KBKT 222035Z AUTO 06008KT 10SM OVC050 28/22 A3007 RMK AO1 T02840221
KBKT 222015Z AUTO 03004KT 10SM OVC048 27/22 A3008 RMK AO1 T02730222
KBKT 221955Z AUTO 03004KT 10SM SCT029 BKN040 OVC046 28/22 A3008 RMK AO1 T02750216
KBKT 221930Z AUTO 03008KT 330V040 10SM SCT029 OVC042 28/22 A3008 RMK AO1 T02800216
KBKT 221915Z AUTO 05008KT 340V090 10SM SCT029 OVC040 29/21 A3008 RMK AO1 T02870214
KBKT 221855Z AUTO 04006KT 10SM SCT029 OVC040 29/21 A3009 RMK AO1 T02850214
KBKT 221835Z AUTO 01003KT 10SM SCT031 OVC040 29/22 A3009 RMK AO1 T02860216
KBKT 221815Z AUTO 05006KT 10SM OVC035 28/21 A3009 RMK AO1 T02800213
KBKT 221755Z AUTO 07006KT 10SM OVC035 29/21 A3010 RMK AO1 T02870214 10295 20210
KBKT 221735Z AUTO 07008KT 10SM BKN031 28/21 A3010 RMK AO1 T02840211
KBKT 221715Z AUTO 07008KT 10SM SCT027 29/22 A3011 RMK AO1 T02900217
KBKT 221650Z AUTO 03006KT 10SM SCT027 29/21 A3011 RMK AO1 T02860213
KBKT 221635Z AUTO 03005KT 10SM CLR 28/21 A3011 RMK AO1 T02820214
KBKT 221615Z AUTO 04009KT 10SM CLR 28/22 A3011 RMK AO1 T02780215
KBKT 221555Z AUTO 04008KT 350V060 10SM SCT023 27/21 A3012 RMK AO1 T02700214
KBKT 221535Z AUTO 36005KT 10SM CLR 27/23 A3011 RMK AO1 T02720225
KBKT 221515Z AUTO 02007KT 340V040 10SM CLR 27/22 A3012 RMK AO1 T02690223
KBKT 221455Z AUTO 02007KT 10SM SCT017 26/23 A3012 RMK AO1 T02640232
KBKT 221435Z AUTO 35008KT 10SM SCT017 26/23 A3012 RMK AO1 T02610234
KBKT 221415Z AUTO 32005KT 10SM CLR 26/24 A3012 RMK AO1 T02580238
KBKT 221355Z AUTO 29007KT 10SM CLR 25/24 A3011 RMK AO1 T02500240
KBKT 221335Z AUTO 27004KT 10SM CLR 24/24 A3010 RMK AO1 T02440240
KBKT 221315Z AUTO 26004KT 10SM CLR 24/24 A3010 RMK AO1 T02350235
KBKT 221255Z AUTO 24007KT 10SM CLR 23/23 A3010 RMK AO1 T02270227
KBKT 221235Z AUTO 25005KT 10SM CLR 22/22 A3010 RMK AO1 T02210221
KBKT 221215Z AUTO 24003KT 10SM CLR 22/22 A3010 RMK AO1 T02150215
KBKT 221155Z AUTO 23005KT 10SM CLR 21/21 A3010 RMK AO1 T02080208
KBKT 221135Z AUTO 23004KT 10SM CLR 20/20 A3009 RMK AO1 T02030203
KBKT 221115Z AUTO 22006KT 10SM CLR 20/20 A3008 RMK AO1 T02020202
KBKT 221055Z AUTO 22006KT 10SM CLR 20/20 A3008 RMK AO1 T02020202
KBKT 221035Z AUTO 21006KT 10SM CLR 20/20 A3008 RMK AO1 T02020202
KBKT 221015Z AUTO 22006KT 10SM CLR 21/21 A3008 RMK AO1 T02050205
KBKT 220955Z AUTO 22007KT 10SM CLR 21/21 A3008 RMK AO1 T02050205
KBKT 220935Z AUTO 22006KT 10SM CLR 21/21 A3007 RMK AO1 T02050205
KBKT 220915Z AUTO 22006KT 10SM CLR 20/20 A3007 RMK AO1 T02020202
KBKT 220855Z AUTO 22007KT 10SM CLR 20/20 A3007 RMK AO1 T02020202
KBKT 220835Z AUTO 22006KT 10SM CLR 20/20 A3007 RMK AO1 T02010201
KBKT 220815Z AUTO 22006KT 10SM CLR 20/20 A3008 RMK AO1 T02010201
KBKT 220755Z AUTO 22007KT 10SM CLR A3008 RMK AO1
KBKT 220735Z AUTO 21005KT 10SM CLR A3008 RMK AO1
KBKT 220715Z AUTO 21005KT 10SM CLR A3009 RMK AO1
KBKT 220655Z AUTO 21003KT 10SM CLR A3009 RMK AO1
KBKT 220635Z AUTO 21005KT 10SM CLR 20/20 A3010 RMK AO1 T02030203
KBKT 220615Z AUTO 21004KT 10SM CLR 21/21 A3010 RMK AO1 T02060206
KBKT 220555Z AUTO 21006KT 10SM CLR 21/21 A3010 RMK AO1 T02050205 10225 20205
KBKT 220535Z AUTO 22004KT 10SM CLR 21/21 A3011 RMK AO1 T02080208
KBKT 220515Z AUTO 21005KT 10SM CLR 21/21 A3011 RMK AO1 T02090209
KBKT 220455Z AUTO 21005KT 10SM CLR 21/21 A3011 RMK AO1 T02100210
KBKT 220435Z AUTO 21005KT 10SM CLR 21/21 A3012 RMK AO1 T02090209
KBKT 220415Z AUTO 20005KT 10SM CLR 21/21 A3012 RMK AO1 T02110211
KBKT 220355Z AUTO 20005KT 10SM CLR 21/21 A3012 RMK AO1 T02120212
KBKT 220335Z AUTO 20006KT 10SM CLR 21/21 A3012 RMK AO1 T02110211
KBKT 220315Z AUTO 20006KT 10SM CLR 22/22 A3013 RMK AO1 T02150215
KBKT 220255Z AUTO 20006KT 10SM CLR 22/22 A3013 RMK AO1 T02150215
KBKT 220235Z AUTO 20005KT 10SM CLR 22/22 A3013 RMK AO1 T02150215
KBKT 220215Z AUTO 20006KT 10SM CLR 22/22 A3012 RMK AO1 T02150215
KBKT 220155Z AUTO 19008KT 10SM CLR 22/22 A3012 RMK AO1 T02150215
KBKT 220135Z AUTO 19010KT 10SM CLR 22/22 A3012 RMK AO1 T02150215
KBKT 220115Z AUTO 19009KT 10SM CLR 22/22 A3012 RMK AO1 T02180218
KBKT 220055Z AUTO 19010KT 10SM CLR 22/22 A3012 RMK AO1 T02210221
KBKT 220035Z AUTO 20011KT 10SM CLR 22/22 A3012 RMK AO1 T02210221